createdAt,value
2019-05-02T00:01:23.665Z,10.27
2019-05-02T00:03:56.430Z,10.25
2019-05-02T00:06:29.724Z,10.20
2019-05-02T00:09:03.938Z,10.14
2019-05-02T00:11:39.082Z,10.11
2019-05-02T00:14:12.791Z,10.05
2019-05-02T00:16:49.312Z,10.03
2019-05-02T00:19:19.978Z,10.07
2019-05-02T00:21:53.266Z,10.03
2019-05-02T00:24:26.985Z,10.01
2019-05-02T00:27:01.301Z,9.95
2019-05-02T00:29:34.784Z,9.94
2019-05-02T00:32:07.572Z,9.83
2019-05-02T00:34:41.392Z,9.77
2019-05-02T00:37:14.067Z,9.70
2019-05-02T00:39:49.170Z,9.65
2019-05-02T00:42:22.507Z,9.60
2019-05-02T00:44:55.476Z,9.53
2019-05-02T00:47:47.723Z,9.49
2019-05-02T00:50:21.325Z,9.45
2019-05-02T00:52:53.998Z,9.36
2019-05-02T00:55:28.960Z,9.32
2019-05-02T00:58:02.116Z,9.26
2019-05-02T01:00:37.047Z,9.22
2019-05-02T01:03:11.054Z,9.19
2019-05-02T01:05:44.861Z,9.13
2019-05-02T01:08:17.553Z,9.13
2019-05-02T01:10:52.148Z,9.09
2019-05-02T01:13:26.907Z,9.06
2019-05-02T01:16:01.017Z,9.00
2019-05-02T01:18:37.142Z,8.95
2019-05-02T01:21:08.058Z,8.89
2019-05-02T01:23:40.679Z,8.81
2019-05-02T01:26:13.354Z,8.81
2019-05-02T01:28:49.132Z,8.77
2019-05-02T01:31:38.079Z,8.76
2019-05-02T01:34:28.776Z,8.68
2019-05-02T01:37:03.092Z,8.62
2019-05-02T01:39:37.932Z,8.55
2019-05-02T01:42:11.364Z,8.48
2019-05-02T01:44:44.000Z,8.41
2019-05-02T01:47:17.449Z,8.36
2019-05-02T01:49:51.961Z,8.29
2019-05-02T01:52:25.705Z,8.20
2019-05-02T01:54:58.408Z,8.18
2019-05-02T01:57:31.179Z,8.14
2019-05-02T02:00:09.593Z,8.08
2019-05-02T02:02:39.315Z,8.04
2019-05-02T02:05:12.088Z,7.99
2019-05-02T02:07:44.759Z,7.94
2019-05-02T02:10:19.805Z,7.90
2019-05-02T02:13:03.562Z,7.88
2019-05-02T02:15:29.088Z,7.87
2019-05-02T02:18:00.804Z,7.90
2019-05-02T02:20:45.189Z,7.88
2019-05-02T02:23:32.068Z,7.89
2019-05-02T02:26:13.879Z,7.91
2019-05-02T02:28:46.551Z,7.94
2019-05-02T02:31:25.304Z,7.94
2019-05-02T02:33:59.722Z,7.97
2019-05-02T02:36:34.627Z,8.03
2019-05-02T02:39:14.586Z,8.08
2019-05-02T02:41:45.319Z,8.17
2019-05-02T02:44:39.844Z,8.21
2019-05-02T02:47:18.759Z,8.27
2019-05-02T02:49:45.773Z,8.29
2019-05-02T02:52:18.442Z,8.32
2019-05-02T02:54:51.084Z,8.32
2019-05-02T02:57:27.933Z,8.30
2019-05-02T03:00:06.732Z,8.24
2019-05-02T03:02:33.304Z,8.26
2019-05-02T03:05:08.690Z,8.25
2019-05-02T03:07:41.385Z,8.26
2019-05-02T03:10:14.169Z,8.26
2019-05-02T03:12:49.646Z,8.24
2019-05-02T03:15:27.866Z,8.26
2019-05-02T03:18:00.048Z,8.27
2019-05-02T03:20:40.149Z,8.25
2019-05-02T03:23:07.190Z,8.28
2019-05-02T03:25:50.487Z,8.30
2019-05-02T03:28:18.618Z,8.31
2019-05-02T03:30:49.210Z,8.29
2019-05-02T03:33:22.349Z,8.27
2019-05-02T03:35:56.362Z,8.32
2019-05-02T03:38:32.385Z,8.34
2019-05-02T03:41:04.455Z,8.34
2019-05-02T03:43:37.122Z,8.35
2019-05-02T03:46:13.495Z,8.36
2019-05-02T03:48:44.426Z,8.38
2019-05-02T03:51:21.439Z,8.35
2019-05-02T03:53:51.524Z,8.36
2019-05-02T03:56:24.308Z,8.35
2019-05-02T03:58:58.174Z,8.34
2019-05-02T04:01:34.835Z,8.36
2019-05-02T04:04:07.462Z,8.37
2019-05-02T04:06:40.293Z,8.38
2019-05-02T04:09:32.037Z,8.34
2019-05-02T04:12:11.781Z,8.36
2019-05-02T04:14:40.101Z,8.42
2019-05-02T04:17:13.495Z,8.44
2019-05-02T04:19:46.476Z,8.44
2019-05-02T04:22:21.325Z,8.45
2019-05-02T04:24:54.836Z,8.47
2019-05-02T04:27:34.127Z,8.49
2019-05-02T04:30:09.721Z,8.47
2019-05-02T04:32:37.645Z,8.49
2019-05-02T04:35:10.325Z,8.50
2019-05-02T04:37:43.827Z,8.44
2019-05-02T04:40:18.232Z,8.41
2019-05-02T04:43:01.053Z,8.43
2019-05-02T04:45:35.905Z,8.44
2019-05-02T04:48:03.923Z,8.47
2019-05-02T04:50:34.073Z,8.49
2019-05-02T04:53:08.614Z,8.61
2019-05-02T04:55:42.096Z,8.60
2019-05-02T04:58:24.263Z,8.66
2019-05-02T05:00:53.568Z,8.66
2019-05-02T05:03:24.027Z,8.75
2019-05-02T05:05:59.364Z,8.87
2019-05-02T05:08:31.922Z,8.89
2019-05-02T05:11:04.783Z,8.88
2019-05-02T05:13:37.597Z,8.86
2019-05-02T05:16:15.351Z,8.89
2019-05-02T05:18:49.384Z,8.93
2019-05-02T05:21:19.667Z,8.88
2019-05-02T05:24:00.979Z,8.87
2019-05-02T05:26:33.791Z,8.74
2019-05-02T05:29:08.215Z,8.80
2019-05-02T05:31:41.019Z,9.04
2019-05-02T05:34:13.740Z,8.97
2019-05-02T05:36:48.147Z,9.14
2019-05-02T05:39:20.989Z,9.04
2019-05-02T05:41:55.098Z,8.96
2019-05-02T05:44:32.465Z,9.17
2019-05-02T05:47:02.831Z,8.96
2019-05-02T05:49:37.513Z,9.09
2019-05-02T05:52:10.525Z,8.98
2019-05-02T05:54:43.309Z,9.08
2019-05-02T05:57:20.826Z,9.07
2019-05-02T05:59:50.922Z,9.10
2019-05-02T06:02:23.620Z,8.96
2019-05-02T06:05:02.538Z,9.07
2019-05-02T06:07:33.099Z,9.08
2019-05-02T06:10:07.944Z,9.00
2019-05-02T06:12:40.153Z,8.99
2019-05-02T06:15:12.981Z,8.99
2019-05-02T06:17:45.623Z,8.98
2019-05-02T06:20:18.494Z,9.01
2019-05-02T06:22:55.084Z,9.12
2019-05-02T06:25:34.191Z,9.12
2019-05-02T06:28:05.462Z,9.21
2019-05-02T06:30:36.182Z,9.32
2019-05-02T06:33:08.872Z,9.67
2019-05-02T06:35:41.848Z,9.61
2019-05-02T06:38:14.475Z,9.45
2019-05-02T06:40:47.916Z,9.41
2019-05-02T06:43:21.211Z,9.50
2019-05-02T06:45:53.989Z,9.64
2019-05-02T06:48:26.678Z,9.81
2019-05-02T06:51:00.739Z,9.70
2019-05-02T06:53:35.105Z,9.53
2019-05-02T06:56:07.937Z,9.63
2019-05-02T06:58:43.299Z,9.60
2019-05-02T07:01:20.635Z,9.58
2019-05-02T07:03:50.528Z,9.69
2019-05-02T07:06:23.543Z,9.64
2019-05-02T07:08:59.669Z,9.67
2019-05-02T07:11:33.215Z,9.57
2019-05-02T07:14:13.675Z,9.37
2019-05-02T07:16:43.299Z,9.40
2019-05-02T07:19:36.084Z,9.35
2019-05-02T07:22:10.017Z,9.29
2019-05-02T07:24:42.839Z,9.35
2019-05-02T07:27:15.572Z,9.34
2019-05-02T07:29:52.184Z,9.37
2019-05-02T07:32:24.655Z,9.54
2019-05-02T07:34:57.811Z,9.49
2019-05-02T07:37:31.902Z,9.41
2019-05-02T07:40:06.544Z,9.59
2019-05-02T07:42:41.834Z,9.83
2019-05-02T07:45:15.991Z,9.92
2019-05-02T07:47:48.708Z,9.90
2019-05-02T07:50:21.692Z,9.80
2019-05-02T07:52:54.445Z,9.84
2019-05-02T07:55:30.541Z,10.17
2019-05-02T07:58:07.010Z,10.20
2019-05-02T08:00:37.113Z,9.98
2019-05-02T08:03:10.783Z,10.29
2019-05-02T08:05:43.477Z,10.19
2019-05-02T08:08:16.141Z,10.16
2019-05-02T08:10:53.862Z,9.94
2019-05-02T08:13:23.755Z,10.01
2019-05-02T08:15:58.373Z,9.80
2019-05-02T08:18:31.752Z,9.88
2019-05-02T08:21:04.768Z,10.22
2019-05-02T08:23:37.555Z,9.94
2019-05-02T08:26:10.222Z,10.07
2019-05-02T08:28:46.959Z,9.80
2019-05-02T08:31:20.861Z,9.62
2019-05-02T08:33:53.175Z,9.61
2019-05-02T08:36:25.868Z,9.69
2019-05-02T08:38:58.634Z,9.88
2019-05-02T08:41:31.923Z,9.77
2019-05-02T08:44:04.709Z,9.90
2019-05-02T08:46:37.400Z,9.78
2019-05-02T08:49:14.200Z,9.94
2019-05-02T08:51:44.496Z,9.92
2019-05-02T08:54:17.167Z,10.18
2019-05-02T08:56:53.340Z,10.15
2019-05-02T08:59:26.221Z,10.04
2019-05-02T09:01:59.603Z,10.36
2019-05-02T09:04:32.401Z,10.41
2019-05-02T09:07:05.035Z,10.28
2019-05-02T09:09:37.863Z,10.41
2019-05-02T09:12:13.253Z,10.50
2019-05-02T09:14:44.962Z,10.53
2019-05-02T09:17:17.583Z,10.59
2019-05-02T09:20:00.285Z,10.57
2019-05-02T09:22:26.571Z,10.68
2019-05-02T09:25:02.113Z,10.76
2019-05-02T09:27:34.793Z,10.77
2019-05-02T09:30:17.099Z,10.76
2019-05-02T09:32:47.646Z,10.74
2019-05-02T09:35:22.951Z,10.92
2019-05-02T09:37:55.346Z,10.73
2019-05-02T09:40:28.018Z,10.89
2019-05-02T09:43:02.824Z,10.82
2019-05-02T09:45:37.511Z,10.98
2019-05-02T09:48:12.577Z,11.05
2019-05-02T09:50:45.803Z,11.33
2019-05-02T09:53:20.761Z,11.20
2019-05-02T09:55:57.713Z,11.59
2019-05-02T09:58:28.974Z,11.63
2019-05-02T10:01:03.288Z,11.51
2019-05-02T10:03:35.905Z,11.55
2019-05-02T10:06:16.443Z,11.62
2019-05-02T10:08:46.344Z,11.95
2019-05-02T10:11:22.499Z,12.29
2019-05-02T10:13:55.293Z,12.15
2019-05-02T10:16:27.448Z,11.93
2019-05-02T10:19:09.516Z,12.20
2019-05-02T10:21:35.975Z,11.73
2019-05-02T10:24:08.869Z,11.92
2019-05-02T10:26:42.041Z,12.06
2019-05-02T10:29:15.147Z,12.32
2019-05-02T10:31:47.931Z,12.20
2019-05-02T10:34:22.683Z,12.39
2019-05-02T10:36:58.951Z,12.46
2019-05-02T10:39:36.135Z,12.72
2019-05-02T10:42:03.664Z,13.05
2019-05-02T10:44:36.695Z,12.49
2019-05-02T10:47:09.533Z,12.43
2019-05-02T10:49:43.756Z,12.52
2019-05-02T10:52:16.532Z,12.52
2019-05-02T10:54:49.213Z,12.53
2019-05-02T10:57:22.025Z,12.59
2019-05-02T10:59:56.240Z,12.89
2019-05-02T11:02:36.146Z,12.73
2019-05-02T11:05:11.982Z,12.86
2019-05-02T11:07:44.789Z,12.71
2019-05-02T11:10:19.325Z,13.26
2019-05-02T11:13:09.746Z,13.37
2019-05-02T11:15:52.505Z,12.96
2019-05-02T11:18:39.429Z,13.11
2019-05-02T11:21:06.818Z,12.91
2019-05-02T11:23:36.289Z,13.41
2019-05-02T11:26:16.339Z,13.42
2019-05-02T11:28:43.893Z,12.90
2019-05-02T11:31:16.777Z,12.84
2019-05-02T11:33:49.461Z,12.85
2019-05-02T11:36:22.502Z,12.85
2019-05-02T11:39:03.208Z,13.38
2019-05-02T11:41:31.743Z,13.31
2019-05-02T11:44:05.399Z,12.92
2019-05-02T11:46:42.934Z,12.61
2019-05-02T11:49:13.765Z,12.60
2019-05-02T11:51:47.183Z,12.63
2019-05-02T11:54:22.625Z,12.72
2019-05-02T11:56:55.155Z,12.42
2019-05-02T11:59:29.317Z,12.19
2019-05-02T12:02:17.507Z,12.33
2019-05-02T12:04:47.333Z,12.18
2019-05-02T12:07:18.602Z,12.46
2019-05-02T12:09:56.836Z,12.51
2019-05-02T12:12:27.203Z,12.59
2019-05-02T12:15:02.467Z,13.10
2019-05-02T12:17:35.211Z,13.33
2019-05-02T12:20:08.553Z,13.60
2019-05-02T12:22:41.977Z,13.41
2019-05-02T12:25:15.503Z,13.60
2019-05-02T12:27:48.177Z,13.80
2019-05-02T12:30:22.850Z,13.69
2019-05-02T12:32:57.087Z,13.67
2019-05-02T12:35:32.123Z,13.72
2019-05-02T12:38:04.603Z,13.36
2019-05-02T12:40:37.267Z,13.29
2019-05-02T12:43:11.836Z,13.35
2019-05-02T12:45:44.361Z,13.48
2019-05-02T12:48:17.060Z,13.58
2019-05-02T12:50:49.818Z,13.66
2019-05-02T12:53:23.105Z,13.73
2019-05-02T12:55:57.021Z,13.52
2019-05-02T12:58:29.707Z,13.45
2019-05-02T13:01:02.917Z,13.49
2019-05-02T13:03:37.259Z,13.65
2019-05-02T13:06:12.098Z,13.52
2019-05-02T13:08:52.502Z,13.64
2019-05-02T13:11:32.010Z,13.74
2019-05-02T13:14:04.570Z,13.68
2019-05-02T13:16:37.295Z,13.48
2019-05-02T13:19:11.928Z,13.59
2019-05-02T13:22:02.534Z,13.54
2019-05-02T13:24:36.740Z,13.65
2019-05-02T13:27:12.596Z,13.59
2019-05-02T13:29:45.736Z,13.92
2019-05-02T13:32:21.764Z,14.06
2019-05-02T13:35:12.869Z,14.01
2019-05-02T13:37:47.314Z,13.85
2019-05-02T13:40:22.724Z,13.78
2019-05-02T13:42:55.503Z,13.95
2019-05-02T13:45:33.086Z,14.22
2019-05-02T13:48:07.294Z,14.29
2019-05-02T13:50:40.084Z,14.27
2019-05-02T13:53:12.814Z,14.35
2019-05-02T13:55:49.639Z,14.55
2019-05-02T13:58:28.908Z,14.63
2019-05-02T14:00:56.586Z,14.46
2019-05-02T14:03:29.271Z,14.43
2019-05-02T14:06:02.952Z,14.19
2019-05-02T14:08:37.655Z,13.91
2019-05-02T14:11:10.014Z,14.08
2019-05-02T14:13:42.751Z,14.46
2019-05-02T14:16:15.391Z,14.67
2019-05-02T14:18:48.155Z,14.45
2019-05-02T14:21:22.407Z,14.72
2019-05-02T14:23:55.110Z,14.71
2019-05-02T14:26:30.576Z,15.06
2019-05-02T14:29:02.534Z,14.72
2019-05-02T14:31:36.781Z,14.33
2019-05-02T14:34:23.582Z,14.11
2019-05-02T14:36:59.237Z,14.04
2019-05-02T14:39:32.513Z,15.25
2019-05-02T14:42:05.512Z,14.57
2019-05-02T14:45:01.481Z,14.39
2019-05-02T14:47:18.200Z,14.36
2019-05-02T14:49:48.315Z,14.38
2019-05-02T14:52:22.141Z,14.59
2019-05-02T14:54:55.755Z,14.10
2019-05-02T14:57:28.607Z,14.20
2019-05-02T15:00:03.249Z,14.54
2019-05-02T15:02:48.784Z,14.61
2019-05-02T15:05:19.233Z,14.39
2019-05-02T15:07:56.933Z,14.32
2019-05-02T15:10:27.415Z,14.69
2019-05-02T15:13:01.931Z,14.61
2019-05-02T15:15:40.860Z,14.67
2019-05-02T15:18:15.832Z,15.49
2019-05-02T15:20:44.880Z,15.35
2019-05-02T15:23:19.835Z,15.47
2019-05-02T15:25:55.975Z,14.97
2019-05-02T15:28:30.579Z,16.13
2019-05-02T15:31:05.337Z,15.69
2019-05-02T15:33:39.554Z,16.55
2019-05-02T15:36:14.212Z,15.08
2019-05-02T15:38:47.614Z,16.65
2019-05-02T15:41:21.819Z,16.61
2019-05-02T15:43:54.658Z,17.41
2019-05-02T15:46:28.343Z,17.44
2019-05-02T15:49:01.862Z,16.22
2019-05-02T15:51:37.927Z,14.70
2019-05-02T15:54:12.517Z,15.02
2019-05-02T15:57:00.341Z,16.72
2019-05-02T15:59:41.681Z,16.64
2019-05-02T16:02:17.589Z,15.76
2019-05-02T16:04:52.127Z,14.89
2019-05-02T16:07:24.523Z,14.81
2019-05-02T16:10:01.163Z,14.93
2019-05-02T16:12:35.930Z,14.34
2019-05-02T16:15:13.440Z,15.55
2019-05-02T16:17:42.912Z,15.12
2019-05-02T16:20:17.172Z,15.56
2019-05-02T16:22:50.088Z,17.05
2019-05-02T16:25:24.488Z,17.66
2019-05-02T16:28:02.653Z,17.37
2019-05-02T16:30:32.551Z,17.53
2019-05-02T16:33:08.003Z,18.32
2019-05-02T16:35:39.659Z,17.77
2019-05-02T16:38:14.375Z,16.65
2019-05-02T16:40:47.158Z,16.51
2019-05-02T16:43:19.934Z,16.37
2019-05-02T16:45:52.638Z,16.06
2019-05-02T16:48:32.337Z,16.26
2019-05-02T16:51:02.172Z,14.86
2019-05-02T16:53:36.294Z,14.53
2019-05-02T16:56:09.066Z,14.73
2019-05-02T16:58:43.402Z,14.73
2019-05-02T17:01:24.628Z,13.89
2019-05-02T17:03:50.482Z,13.76
2019-05-02T17:06:25.988Z,13.73
2019-05-02T17:08:58.795Z,13.63
2019-05-02T17:11:35.886Z,13.51
2019-05-02T17:14:12.110Z,13.50
2019-05-02T17:16:42.378Z,13.55
2019-05-02T17:19:15.068Z,13.67
2019-05-02T17:21:54.015Z,13.65
2019-05-02T17:24:26.027Z,13.65
2019-05-02T17:26:56.327Z,13.84
2019-05-02T17:29:29.051Z,13.56
2019-05-02T17:32:02.232Z,13.44
2019-05-02T17:34:35.111Z,13.30
2019-05-02T17:37:11.512Z,13.27
2019-05-02T17:39:45.971Z,13.10
2019-05-02T17:42:17.016Z,13.03
2019-05-02T17:44:51.698Z,12.96
2019-05-02T17:47:25.230Z,12.91
2019-05-02T17:50:01.963Z,12.74
2019-05-02T17:52:38.629Z,12.72
2019-05-02T17:55:13.819Z,12.60
2019-05-02T17:57:46.552Z,12.52
2019-05-02T18:00:21.615Z,12.43
2019-05-02T18:02:54.474Z,12.37
2019-05-02T18:05:32.061Z,12.29
2019-05-02T18:08:01.460Z,12.20
2019-05-02T18:10:34.197Z,12.14
2019-05-02T18:13:07.241Z,12.05
2019-05-02T18:15:41.732Z,12.00
2019-05-02T18:18:14.331Z,11.93
2019-05-02T18:20:47.062Z,11.87
2019-05-02T18:23:24.079Z,11.79
2019-05-02T18:25:57.316Z,11.77
2019-05-02T18:28:28.432Z,11.71
2019-05-02T18:31:02.772Z,11.64
2019-05-02T18:33:35.954Z,11.55
2019-05-02T18:36:09.847Z,11.49
2019-05-02T18:38:42.461Z,11.50
2019-05-02T18:41:15.707Z,11.42
2019-05-02T18:43:48.399Z,11.38
2019-05-02T18:46:22.316Z,11.35
2019-05-02T18:48:55.287Z,11.31
2019-05-02T18:51:28.072Z,11.22
2019-05-02T18:54:04.270Z,11.15
2019-05-02T18:56:42.807Z,11.04
2019-05-02T18:59:09.374Z,11.00
2019-05-02T19:01:42.733Z,11.00
2019-05-02T19:04:15.651Z,10.95
2019-05-02T19:06:48.335Z,10.89
2019-05-02T19:09:22.881Z,10.82
2019-05-02T19:12:05.030Z,10.78
2019-05-02T19:14:29.757Z,10.75
2019-05-02T19:17:05.450Z,10.72
2019-05-02T19:19:38.099Z,10.64
2019-05-02T19:22:13.241Z,10.62
2019-05-02T19:24:45.192Z,10.58
2019-05-02T19:27:21.070Z,10.57
2019-05-02T19:29:54.823Z,10.60
2019-05-02T19:32:28.463Z,10.64
2019-05-02T19:35:06.833Z,10.68
2019-05-02T19:37:44.617Z,10.64
2019-05-02T19:40:20.067Z,10.68
2019-05-02T19:42:52.703Z,10.65
2019-05-02T19:45:25.863Z,10.67
2019-05-02T19:47:58.859Z,10.66
2019-05-02T19:50:43.506Z,10.65
2019-05-02T19:53:17.880Z,10.70
2019-05-02T19:55:47.546Z,10.60
2019-05-02T19:58:20.522Z,10.60
2019-05-02T20:00:53.198Z,10.57
2019-05-02T20:03:26.600Z,10.58
2019-05-02T20:06:02.467Z,10.56
2019-05-02T20:08:33.703Z,10.52
2019-05-02T20:11:06.574Z,10.58
2019-05-02T20:13:39.472Z,10.58
2019-05-02T20:16:17.272Z,10.63
2019-05-02T20:18:52.549Z,10.66
2019-05-02T20:21:28.054Z,10.67
2019-05-02T20:24:02.072Z,10.67
2019-05-02T20:26:35.862Z,10.78
2019-05-02T20:29:08.960Z,10.77
2019-05-02T20:31:41.894Z,10.79
2019-05-02T20:34:14.935Z,10.79
2019-05-02T20:36:47.604Z,10.80
2019-05-02T20:39:22.357Z,10.83
2019-05-02T20:41:54.829Z,10.85
2019-05-02T20:44:28.362Z,10.85
2019-05-02T20:47:02.623Z,10.85
2019-05-02T20:49:35.409Z,10.87
2019-05-02T20:52:08.095Z,10.89
2019-05-02T20:54:42.689Z,10.91
2019-05-02T20:57:15.794Z,10.94
2019-05-02T20:59:48.576Z,10.96
2019-05-02T21:02:21.865Z,11.00
2019-05-02T21:04:54.571Z,11.00
2019-05-02T21:07:33.061Z,11.01
2019-05-02T21:10:12.568Z,11.02
2019-05-02T21:12:45.497Z,11.04
2019-05-02T21:15:18.417Z,11.03
2019-05-02T21:17:51.108Z,11.03
2019-05-02T21:20:24.965Z,11.01
2019-05-02T21:22:57.650Z,11.03
2019-05-02T21:25:32.412Z,11.03
2019-05-02T21:28:04.684Z,11.01
2019-05-02T21:30:37.428Z,11.02
2019-05-02T21:33:17.488Z,11.03
2019-05-02T21:35:51.815Z,11.03
2019-05-02T21:38:24.567Z,11.05
2019-05-02T21:40:57.269Z,11.04
2019-05-02T21:43:31.646Z,11.09
2019-05-02T21:46:04.710Z,11.11
2019-05-02T21:48:37.330Z,11.17
2019-05-02T21:51:12.269Z,11.17
2019-05-02T21:54:04.816Z,11.18
2019-05-02T21:56:43.025Z,11.17
2019-05-02T21:59:15.902Z,11.15
2019-05-02T22:01:57.843Z,11.12
2019-05-02T22:04:31.835Z,11.09
2019-05-02T22:07:05.004Z,11.10
2019-05-02T22:09:38.701Z,11.11
2019-05-02T22:12:12.086Z,11.12
2019-05-02T22:14:45.686Z,11.14
2019-05-02T22:17:18.436Z,11.17
2019-05-02T22:19:52.406Z,11.18
2019-05-02T22:22:25.575Z,11.19
2019-05-02T22:24:58.258Z,11.17
2019-05-02T22:27:32.502Z,11.21
2019-05-02T22:30:08.539Z,11.21
2019-05-02T22:32:42.757Z,11.26
2019-05-02T22:35:15.747Z,11.28
2019-05-02T22:37:50.009Z,11.33
2019-05-02T22:40:22.737Z,11.32
2019-05-02T22:42:55.411Z,11.38
2019-05-02T22:45:28.198Z,11.39
2019-05-02T22:48:02.601Z,11.38
2019-05-02T22:50:36.099Z,11.37
2019-05-02T22:53:08.807Z,11.36
2019-05-02T22:55:42.555Z,11.28
2019-05-02T22:58:15.370Z,11.20
2019-05-02T23:00:48.063Z,11.18
2019-05-02T23:03:21.535Z,11.11
2019-05-02T23:05:55.257Z,11.04
2019-05-02T23:08:28.043Z,10.99
2019-05-02T23:11:01.135Z,10.92
2019-05-02T23:13:34.118Z,10.98
2019-05-02T23:16:07.156Z,10.94
2019-05-02T23:18:40.099Z,10.88
2019-05-02T23:21:12.962Z,10.85
2019-05-02T23:23:45.641Z,10.83
2019-05-02T23:26:27.586Z,10.80
2019-05-02T23:29:02.355Z,10.76
2019-05-02T23:31:36.068Z,10.75
2019-05-02T23:34:09.786Z,10.71
2019-05-02T23:36:42.473Z,10.64
2019-05-02T23:39:15.235Z,10.58
2019-05-02T23:41:47.924Z,10.58
2019-05-02T23:44:22.698Z,10.55
2019-05-02T23:46:56.100Z,10.54
2019-05-02T23:49:29.151Z,10.54
2019-05-02T23:52:02.258Z,10.54
2019-05-02T23:54:35.406Z,10.55
2019-05-02T23:57:08.091Z,10.54
2019-05-02T23:59:42.421Z,10.55
